createdAt,value
2017-07-07T00:00:40.966Z,16.68
2017-07-07T00:01:40.652Z,16.66
2017-07-07T00:02:40.964Z,16.66
2017-07-07T00:03:40.970Z,16.64
2017-07-07T00:04:40.956Z,16.7
2017-07-07T00:05:40.643Z,16.61
2017-07-07T00:06:40.623Z,16.6
2017-07-07T00:07:40.951Z,16.52
2017-07-07T00:08:40.618Z,16.56
2017-07-07T00:09:40.942Z,16.53
2017-07-07T00:10:40.617Z,16.58
2017-07-07T00:11:40.922Z,16.53
2017-07-07T00:12:40.928Z,16.56
2017-07-07T00:13:40.927Z,16.57
2017-07-07T00:14:40.616Z,16.6
2017-07-07T00:15:40.592Z,16.56
2017-07-07T00:16:40.916Z,16.58
2017-07-07T00:17:40.899Z,16.52
2017-07-07T00:18:40.905Z,16.53
2017-07-07T00:19:40.896Z,16.58
2017-07-07T00:20:40.900Z,16.58
2017-07-07T00:21:40.580Z,16.58
2017-07-07T00:22:40.563Z,16.6
2017-07-07T00:23:40.570Z,16.56
2017-07-07T00:24:40.556Z,16.6
2017-07-07T00:25:40.886Z,16.57
2017-07-07T00:26:40.860Z,16.56
2017-07-07T00:27:40.861Z,16.53
2017-07-07T00:28:40.549Z,16.6
2017-07-07T00:29:40.868Z,16.61
2017-07-07T00:30:40.868Z,16.56
2017-07-07T00:31:40.526Z,16.58
2017-07-07T00:32:40.840Z,16.58
2017-07-07T00:33:40.525Z,16.56
2017-07-07T00:34:40.211Z,16.58
2017-07-07T00:35:40.833Z,16.56
2017-07-07T00:36:40.840Z,16.56
2017-07-07T00:37:40.829Z,16.58
2017-07-07T00:38:40.516Z,16.58
2017-07-07T00:39:40.830Z,16.5
2017-07-07T00:40:40.821Z,16.64
2017-07-07T00:41:40.812Z,16.5
2017-07-07T00:42:40.822Z,16.6
2017-07-07T00:43:40.802Z,16.63
2017-07-07T00:44:40.494Z,16.68
2017-07-07T00:45:40.788Z,16.67
2017-07-07T00:46:40.808Z,16.71
2017-07-07T00:47:40.776Z,16.61
2017-07-07T00:48:40.785Z,16.71
2017-07-07T00:49:40.777Z,16.7
2017-07-07T00:50:40.790Z,16.78
2017-07-07T00:51:40.770Z,16.82
2017-07-07T00:52:40.465Z,16.82
2017-07-07T00:53:40.755Z,16.89
2017-07-07T00:54:40.763Z,16.88
2017-07-07T00:55:40.751Z,16.93
2017-07-07T00:56:40.760Z,16.98
2017-07-07T00:57:40.734Z,16.98
2017-07-07T00:58:40.762Z,17.03
2017-07-07T00:59:40.735Z,17.04
2017-07-07T01:00:40.419Z,17.12
2017-07-07T01:01:40.429Z,17.07
2017-07-07T01:02:40.750Z,17.18
2017-07-07T01:03:40.413Z,17.11
2017-07-07T01:04:40.732Z,17.16
2017-07-07T01:05:40.704Z,17.16
2017-07-07T01:06:40.411Z,17.23
2017-07-07T01:07:40.715Z,17.14
2017-07-07T01:08:40.721Z,17.11
2017-07-07T01:09:40.390Z,17.15
2017-07-07T01:10:40.713Z,17.19
2017-07-07T01:11:40.742Z,17.14
2017-07-07T01:12:40.719Z,17.18
2017-07-07T01:13:40.706Z,17.11
2017-07-07T01:14:40.683Z,17.22
2017-07-07T01:15:40.690Z,17.19
2017-07-07T01:16:40.676Z,17.26
2017-07-07T01:17:40.681Z,17.21
2017-07-07T01:18:40.690Z,17.26
2017-07-07T01:19:40.675Z,17.25
2017-07-07T01:20:40.349Z,17.23
2017-07-07T01:21:40.334Z,17.28
2017-07-07T01:22:40.670Z,17.25
2017-07-07T01:23:40.022Z,17.23
2017-07-07T01:24:40.657Z,17.36
2017-07-07T01:25:40.333Z,17.23
2017-07-07T01:26:40.650Z,17.31
2017-07-07T01:27:40.655Z,17.33
2017-07-07T01:28:40.654Z,17.21
2017-07-07T01:29:40.630Z,17.34
2017-07-07T01:30:40.327Z,17.26
2017-07-07T01:31:40.319Z,17.25
2017-07-07T01:32:40.633Z,17.25
2017-07-07T01:33:40.308Z,17.23
2017-07-07T01:34:40.601Z,17.25
2017-07-07T01:35:40.307Z,17.23
2017-07-07T01:36:40.606Z,17.25
2017-07-07T01:37:40.285Z,17.25
2017-07-07T01:38:40.289Z,17.22
2017-07-07T01:39:40.593Z,17.22
2017-07-07T01:40:40.604Z,17.08
2017-07-07T01:41:40.585Z,17.15
2017-07-07T01:42:40.605Z,17.11
2017-07-07T01:43:40.269Z,17.19
2017-07-07T01:44:40.575Z,17.18
2017-07-07T01:45:40.260Z,17.08
2017-07-07T01:46:40.583Z,17.07
2017-07-07T01:47:40.576Z,17.08
2017-07-07T01:48:40.563Z,17.07
2017-07-07T01:49:40.572Z,17.14
2017-07-07T01:50:40.229Z,17.15
2017-07-07T01:51:40.574Z,17.11
2017-07-07T01:52:40.242Z,17.23
2017-07-07T01:53:40.558Z,17.12
2017-07-07T01:54:40.538Z,17.15
2017-07-07T01:55:40.546Z,17.12
2017-07-07T01:56:40.538Z,17.15
2017-07-07T01:57:40.535Z,17.18
2017-07-07T01:58:40.526Z,17.11
2017-07-07T01:59:40.538Z,17.19
2017-07-07T02:00:40.197Z,17.23
2017-07-07T02:01:40.531Z,17.15
2017-07-07T02:02:40.500Z,17.23
2017-07-07T02:03:40.517Z,17.28
2017-07-07T02:04:40.518Z,17.25
2017-07-07T02:05:40.496Z,17.23
2017-07-07T02:06:40.501Z,17.23
2017-07-07T02:07:40.514Z,17.23
2017-07-07T02:08:40.202Z,17.19
2017-07-07T02:09:40.179Z,17.18
2017-07-07T02:10:40.480Z,17.21
2017-07-07T02:11:40.488Z,17.21
2017-07-07T02:12:40.477Z,17.25
2017-07-07T02:13:40.490Z,17.21
2017-07-07T02:14:40.467Z,17.23
2017-07-07T02:15:40.471Z,17.21
2017-07-07T02:16:40.150Z,17.23
2017-07-07T02:17:40.154Z,17.22
2017-07-07T02:18:40.459Z,17.26
2017-07-07T02:19:40.133Z,17.23
2017-07-07T02:20:40.448Z,17.23
2017-07-07T02:21:40.464Z,17.22
2017-07-07T02:22:40.448Z,17.23
2017-07-07T02:23:40.431Z,17.21
2017-07-07T02:24:40.128Z,17.22
2017-07-07T02:25:40.428Z,17.22
2017-07-07T02:26:40.449Z,17.19
2017-07-07T02:27:40.100Z,17.25
2017-07-07T02:28:40.427Z,17.23
2017-07-07T02:29:40.429Z,17.21
2017-07-07T02:30:40.088Z,17.22
2017-07-07T02:31:40.420Z,17.15
2017-07-07T02:32:40.092Z,17.16
2017-07-07T02:33:40.088Z,17.21
2017-07-07T02:34:40.684Z,17.23
2017-07-07T02:35:40.076Z,17.22
2017-07-07T02:36:39.764Z,17.19
2017-07-07T02:37:40.462Z,17.28
2017-07-07T02:38:40.080Z,17.21
2017-07-07T02:39:40.378Z,17.25
2017-07-07T02:40:40.057Z,17.21
2017-07-07T02:41:40.381Z,17.18
2017-07-07T02:42:40.366Z,17.23
2017-07-07T02:43:40.063Z,17.21
2017-07-07T02:44:40.365Z,17.22
2017-07-07T02:45:40.050Z,17.34
2017-07-07T02:46:40.361Z,17.34
2017-07-07T02:47:40.053Z,17.33
2017-07-07T02:48:40.351Z,17.34
2017-07-07T02:49:40.042Z,17.33
2017-07-07T02:50:39.710Z,17.23
2017-07-07T02:51:40.341Z,17.3
2017-07-07T02:52:40.337Z,17.31
2017-07-07T02:53:40.400Z,17.31
2017-07-07T02:54:40.386Z,17.34
2017-07-07T02:55:40.328Z,17.41
2017-07-07T02:56:40.004Z,17.43
2017-07-07T02:57:39.697Z,17.43
2017-07-07T02:58:39.985Z,17.43
2017-07-07T02:59:40.312Z,17.48
2017-07-07T03:00:39.664Z,17.48
2017-07-07T03:01:40.366Z,17.48
2017-07-07T03:02:40.293Z,17.46
2017-07-07T03:03:40.311Z,17.52
2017-07-07T03:04:39.977Z,17.54
2017-07-07T03:05:39.987Z,17.58
2017-07-07T03:06:39.957Z,17.55
2017-07-07T03:07:39.643Z,17.58
2017-07-07T03:08:40.276Z,17.56
2017-07-07T03:09:40.279Z,17.56
2017-07-07T03:10:40.271Z,17.54
2017-07-07T03:11:39.957Z,17.56
2017-07-07T03:12:40.267Z,17.51
2017-07-07T03:13:40.253Z,17.55
2017-07-07T03:14:40.276Z,17.55
2017-07-07T03:15:39.929Z,17.56
2017-07-07T03:16:40.256Z,17.58
2017-07-07T03:17:39.924Z,17.49
2017-07-07T03:18:40.252Z,17.55
2017-07-07T03:19:40.237Z,17.55
2017-07-07T03:20:40.236Z,17.56
2017-07-07T03:21:39.923Z,17.58
2017-07-07T03:22:40.214Z,17.58
2017-07-07T03:23:39.591Z,17.59
2017-07-07T03:24:40.231Z,17.62
2017-07-07T03:25:39.905Z,17.63
2017-07-07T03:26:39.905Z,17.64
2017-07-07T03:27:39.888Z,17.64
2017-07-07T03:28:40.206Z,17.66
2017-07-07T03:29:39.569Z,17.63
2017-07-07T03:30:39.896Z,17.74
2017-07-07T03:31:39.880Z,17.78
2017-07-07T03:32:39.889Z,17.81
2017-07-07T03:33:40.238Z,17.81
2017-07-07T03:34:40.208Z,17.86
2017-07-07T03:35:39.863Z,17.86
2017-07-07T03:36:40.194Z,17.89
2017-07-07T03:37:40.185Z,17.78
2017-07-07T03:38:39.864Z,17.81
2017-07-07T03:39:39.859Z,17.92
2017-07-07T03:40:40.425Z,17.93
2017-07-07T03:41:40.151Z,17.9
2017-07-07T03:42:39.837Z,17.93
2017-07-07T03:43:40.160Z,18
2017-07-07T03:44:40.157Z,18.07
2017-07-07T03:45:40.143Z,18.14
2017-07-07T03:46:40.168Z,18.08
2017-07-07T03:47:39.833Z,18.2
2017-07-07T03:48:40.162Z,18.18
2017-07-07T03:49:40.133Z,18.27
2017-07-07T03:50:40.152Z,18.45
2017-07-07T03:51:40.128Z,18.48
2017-07-07T03:52:39.818Z,18.65
2017-07-07T03:53:40.124Z,18.8
2017-07-07T03:54:40.142Z,18.94
2017-07-07T03:55:40.126Z,19.1
2017-07-07T03:56:40.125Z,19.18
2017-07-07T03:57:40.109Z,19.4
2017-07-07T03:58:40.105Z,19.56
2017-07-07T03:59:39.809Z,19.61
2017-07-07T04:00:39.797Z,19.69
2017-07-07T04:01:40.108Z,19.71
2017-07-07T04:02:40.104Z,19.77
2017-07-07T04:03:40.118Z,19.87
2017-07-07T04:04:40.103Z,19.87
2017-07-07T04:05:40.111Z,19.83
2017-07-07T04:06:39.777Z,19.92
2017-07-07T04:07:39.788Z,19.88
2017-07-07T04:08:40.099Z,19.8
2017-07-07T04:09:40.106Z,19.91
2017-07-07T04:10:40.083Z,19.92
2017-07-07T04:11:40.103Z,19.84
2017-07-07T04:12:40.089Z,19.95
2017-07-07T04:13:40.087Z,19.91
2017-07-07T04:14:40.078Z,19.92
2017-07-07T04:15:40.090Z,19.88
2017-07-07T04:16:40.075Z,20.03
2017-07-07T04:17:40.087Z,20.02
2017-07-07T04:18:40.070Z,20.05
2017-07-07T04:19:40.080Z,20.03
2017-07-07T04:20:40.069Z,20.18
2017-07-07T04:21:39.758Z,20.18
2017-07-07T04:22:39.750Z,20.08
2017-07-07T04:23:39.758Z,20.16
2017-07-07T04:24:40.072Z,20.16
2017-07-07T04:25:40.059Z,20.16
2017-07-07T04:26:40.062Z,20.24
2017-07-07T04:27:40.061Z,20.28
2017-07-07T04:28:40.053Z,20.29
2017-07-07T04:29:40.043Z,20.28
2017-07-07T04:30:40.046Z,20.23
2017-07-07T04:31:39.745Z,20.23
2017-07-07T04:32:40.055Z,20.23
2017-07-07T04:33:40.062Z,20.26
2017-07-07T04:34:40.047Z,20.23
2017-07-07T04:35:39.739Z,20.21
2017-07-07T04:36:40.038Z,20.28
2017-07-07T04:37:39.716Z,20.31
2017-07-07T04:38:40.055Z,20.28
2017-07-07T04:39:40.021Z,20.26
2017-07-07T04:40:39.723Z,20.26
2017-07-07T04:41:40.028Z,20.26
2017-07-07T04:42:39.405Z,20.28
2017-07-07T04:43:40.052Z,20.31
2017-07-07T04:44:39.711Z,20.28
2017-07-07T04:45:39.706Z,20.26
2017-07-07T04:46:40.032Z,20.21
2017-07-07T04:47:40.030Z,20.18
2017-07-07T04:48:40.023Z,20.14
2017-07-07T04:49:40.032Z,20.17
2017-07-07T04:50:39.701Z,20.17
2017-07-07T04:51:40.029Z,20.14
2017-07-07T04:52:40.001Z,20.16
2017-07-07T04:53:39.713Z,20.14
2017-07-07T04:54:40.012Z,20.06
2017-07-07T04:55:40.031Z,20.11
2017-07-07T04:56:39.693Z,20.18
2017-07-07T04:57:39.693Z,20.2
2017-07-07T04:58:40.002Z,20.17
2017-07-07T04:59:39.998Z,20.08
2017-07-07T05:00:40.004Z,20.02
2017-07-07T05:01:40.006Z,20.05
2017-07-07T05:02:39.996Z,20.11
2017-07-07T05:03:40.017Z,20.08
2017-07-07T05:04:40.008Z,20.05
2017-07-07T05:05:40.007Z,20.05
2017-07-07T05:06:39.982Z,20.1
2017-07-07T05:07:40.001Z,20.05
2017-07-07T05:08:39.972Z,20.03
2017-07-07T05:09:39.997Z,19.88
2017-07-07T05:10:39.668Z,19.94
2017-07-07T05:11:39.356Z,19.88
2017-07-07T05:12:39.978Z,19.91
2017-07-07T05:13:39.992Z,19.86
2017-07-07T05:14:39.975Z,19.94
2017-07-07T05:15:39.979Z,19.92
2017-07-07T05:16:39.963Z,19.94
2017-07-07T05:17:39.986Z,19.94
2017-07-07T05:18:39.661Z,19.98
2017-07-07T05:19:39.652Z,20.02
2017-07-07T05:20:39.641Z,20.06
2017-07-07T05:21:39.955Z,20.08
2017-07-07T05:22:39.643Z,19.99
2017-07-07T05:23:39.961Z,20.06
2017-07-07T05:24:39.674Z,20.06
2017-07-07T05:25:39.943Z,20.08
2017-07-07T05:26:39.964Z,20.1
2017-07-07T05:27:39.622Z,20.05
2017-07-07T05:28:39.626Z,20.05
2017-07-07T05:29:39.948Z,20.05
2017-07-07T05:30:39.627Z,20.05
2017-07-07T05:31:39.623Z,19.98
2017-07-07T05:32:39.941Z,19.91
2017-07-07T05:33:39.944Z,19.91
2017-07-07T05:34:39.945Z,19.94
2017-07-07T05:35:39.620Z,19.91
2017-07-07T05:36:39.930Z,19.92
2017-07-07T05:37:39.926Z,19.91
2017-07-07T05:38:39.936Z,19.91
2017-07-07T05:39:39.946Z,19.94
2017-07-07T05:40:39.937Z,19.95
2017-07-07T05:41:39.933Z,19.92
2017-07-07T05:42:39.926Z,20.05
2017-07-07T05:43:39.911Z,19.99
2017-07-07T05:44:39.919Z,19.98
2017-07-07T05:45:39.582Z,19.88
2017-07-07T05:46:39.604Z,19.94
2017-07-07T05:47:39.915Z,19.87
2017-07-07T05:48:39.274Z,19.91
2017-07-07T05:49:39.599Z,19.95
2017-07-07T05:50:39.894Z,19.94
2017-07-07T05:51:39.917Z,19.86
2017-07-07T05:52:39.914Z,19.92
2017-07-07T05:53:39.899Z,19.99
2017-07-07T05:54:39.901Z,19.92
2017-07-07T05:55:39.887Z,19.99
2017-07-07T05:56:39.906Z,20.03
2017-07-07T05:57:39.573Z,20.03
2017-07-07T05:58:39.939Z,20.06
2017-07-07T05:59:39.885Z,20.14
2017-07-07T06:00:39.580Z,20.08
2017-07-07T06:01:39.869Z,20.21
2017-07-07T06:02:39.894Z,20.13
2017-07-07T06:03:39.884Z,20.16
2017-07-07T06:04:39.873Z,20.21
2017-07-07T06:05:39.554Z,20.24
2017-07-07T06:06:39.863Z,20.26
2017-07-07T06:07:39.567Z,20.24
2017-07-07T06:08:39.867Z,20.26
2017-07-07T06:09:39.885Z,20.28
2017-07-07T06:10:39.860Z,20.29
2017-07-07T06:11:39.876Z,20.39
2017-07-07T06:12:39.857Z,20.39
2017-07-07T06:13:39.871Z,20.39
2017-07-07T06:14:39.852Z,20.39
2017-07-07T06:15:39.546Z,20.41
2017-07-07T06:16:39.850Z,20.36
2017-07-07T06:17:39.869Z,20.48
2017-07-07T06:18:39.850Z,20.41
2017-07-07T06:19:39.538Z,20.43
2017-07-07T06:20:39.848Z,20.52
2017-07-07T06:21:39.839Z,20.52
2017-07-07T06:22:39.529Z,20.55
2017-07-07T06:23:39.846Z,20.57
2017-07-07T06:24:39.844Z,20.64
2017-07-07T06:25:39.851Z,20.64
2017-07-07T06:26:39.835Z,20.59
2017-07-07T06:27:39.532Z,20.62
2017-07-07T06:28:39.831Z,20.61
2017-07-07T06:29:39.848Z,20.74
2017-07-07T06:30:39.824Z,20.59
2017-07-07T06:31:39.525Z,20.62
2017-07-07T06:32:39.828Z,20.51
2017-07-07T06:33:39.199Z,20.35
2017-07-07T06:34:39.819Z,20.31
2017-07-07T06:35:39.821Z,20.2
2017-07-07T06:36:39.191Z,20.14
2017-07-07T06:37:39.195Z,20.02
2017-07-07T06:38:39.194Z,19.91
2017-07-07T06:39:39.813Z,19.83
2017-07-07T06:40:39.822Z,19.69
2017-07-07T06:41:39.812Z,19.77
2017-07-07T06:42:39.827Z,19.66
2017-07-07T06:43:39.811Z,19.63
2017-07-07T06:44:39.813Z,19.5
2017-07-07T06:45:39.819Z,19.44
2017-07-07T06:46:39.809Z,19.54
2017-07-07T06:47:39.817Z,19.46
2017-07-07T06:48:39.490Z,19.54
2017-07-07T06:49:39.808Z,19.4
2017-07-07T06:50:39.470Z,19.39
2017-07-07T06:51:39.810Z,19.43
2017-07-07T06:52:39.800Z,19.36
2017-07-07T06:53:39.486Z,19.39
2017-07-07T06:54:39.798Z,19.39
2017-07-07T06:55:39.786Z,19.32
2017-07-07T06:56:39.787Z,19.28
2017-07-07T06:57:39.466Z,19.26
2017-07-07T06:58:39.475Z,19.22
2017-07-07T06:59:39.780Z,19.14
2017-07-07T07:00:39.787Z,19.14
2017-07-07T07:01:39.760Z,19.14
2017-07-07T07:02:39.781Z,19.11
2017-07-07T07:03:39.455Z,19.13
2017-07-07T07:04:39.466Z,19.16
2017-07-07T07:05:39.446Z,19.16
2017-07-07T07:06:39.778Z,19.18
2017-07-07T07:07:39.781Z,19.11
2017-07-07T07:08:39.764Z,19.06
2017-07-07T07:09:39.756Z,19.13
2017-07-07T07:10:39.450Z,19.06
2017-07-07T07:11:39.742Z,19.08
2017-07-07T07:12:39.751Z,19.08
2017-07-07T07:13:39.744Z,19.14
2017-07-07T07:14:39.441Z,19.07
2017-07-07T07:15:39.746Z,19.07
2017-07-07T07:16:39.752Z,19.1
2017-07-07T07:17:39.729Z,19.02
2017-07-07T07:18:39.748Z,19
2017-07-07T07:19:39.735Z,19.04
2017-07-07T07:20:39.739Z,19.02
2017-07-07T07:21:39.736Z,18.99
2017-07-07T07:22:39.106Z,18.94
2017-07-07T07:23:39.424Z,18.99
2017-07-07T07:24:39.736Z,18.94
2017-07-07T07:25:39.706Z,19.02
2017-07-07T07:26:39.087Z,19.02
2017-07-07T07:27:39.728Z,19.04
2017-07-07T07:28:39.711Z,19.1
2017-07-07T07:29:39.723Z,18.99
2017-07-07T07:30:39.710Z,19.02
2017-07-07T07:31:39.716Z,19.04
2017-07-07T07:32:39.702Z,19
2017-07-07T07:33:39.399Z,19.1
2017-07-07T07:34:39.703Z,19.13
2017-07-07T07:35:39.703Z,19.13
2017-07-07T07:36:39.383Z,19.16
2017-07-07T07:37:39.685Z,19.28
2017-07-07T07:38:39.704Z,19.29
2017-07-07T07:39:39.710Z,19.28
2017-07-07T07:40:39.054Z,19.36
2017-07-07T07:41:39.687Z,19.41
2017-07-07T07:42:39.681Z,19.44
2017-07-07T07:43:39.363Z,19.37
2017-07-07T07:44:39.680Z,19.43
2017-07-07T07:45:39.055Z,19.39
2017-07-07T07:46:39.661Z,19.41
2017-07-07T07:47:39.673Z,19.46
2017-07-07T07:48:39.674Z,19.39
2017-07-07T07:49:39.344Z,19.46
2017-07-07T07:50:39.681Z,19.44
2017-07-07T07:51:39.662Z,19.44
2017-07-07T07:52:39.348Z,19.4
2017-07-07T07:53:39.645Z,19.4
2017-07-07T07:54:39.661Z,19.43
2017-07-07T07:55:39.026Z,19.33
2017-07-07T07:56:39.657Z,19.32
2017-07-07T07:57:39.328Z,19.4
2017-07-07T07:58:39.699Z,19.37
2017-07-07T07:59:39.647Z,19.39
2017-07-07T08:00:39.333Z,19.39
2017-07-07T08:01:39.632Z,19.43
2017-07-07T08:02:39.321Z,19.43
2017-07-07T08:03:39.628Z,19.46
2017-07-07T08:04:39.665Z,19.55
2017-07-07T08:05:39.620Z,19.5
2017-07-07T08:06:39.632Z,19.61
2017-07-07T08:07:39.623Z,19.62
2017-07-07T08:08:39.623Z,19.73
2017-07-07T08:09:39.616Z,19.71
2017-07-07T08:10:39.309Z,19.76
2017-07-07T08:11:39.628Z,19.77
2017-07-07T08:12:39.617Z,19.92
2017-07-07T08:13:39.603Z,19.86
2017-07-07T08:14:39.603Z,19.94
2017-07-07T08:15:39.613Z,20.1
2017-07-07T08:16:39.291Z,20.03
2017-07-07T08:17:39.304Z,20.06
2017-07-07T08:18:39.583Z,20.14
2017-07-07T08:19:38.970Z,20.08
2017-07-07T08:20:39.602Z,20.16
2017-07-07T08:21:39.288Z,20.16
2017-07-07T08:22:38.959Z,20.14
2017-07-07T08:23:39.291Z,20.23
2017-07-07T08:24:39.276Z,20.2
2017-07-07T08:25:39.285Z,20.26
2017-07-07T08:26:38.951Z,20.23
2017-07-07T08:27:38.955Z,20.23
2017-07-07T08:28:39.266Z,20.26
2017-07-07T08:29:39.262Z,20.32
2017-07-07T08:30:38.946Z,20.26
2017-07-07T08:31:39.269Z,20.18
2017-07-07T08:32:39.570Z,20.26
2017-07-07T08:33:39.644Z,20.24
2017-07-07T08:34:39.575Z,20.28
2017-07-07T08:35:39.577Z,20.36
2017-07-07T08:36:39.253Z,20.47
2017-07-07T08:37:39.580Z,20.36
2017-07-07T08:38:39.563Z,20.52
2017-07-07T08:39:39.255Z,20.59
2017-07-07T08:40:39.260Z,20.77
2017-07-07T08:41:39.572Z,20.76
2017-07-07T08:42:39.240Z,20.91
2017-07-07T08:43:39.550Z,20.87
2017-07-07T08:44:39.574Z,20.95
2017-07-07T08:45:39.564Z,20.98
2017-07-07T08:46:39.551Z,21.03
2017-07-07T08:47:39.556Z,21.01
2017-07-07T08:48:39.566Z,20.98
2017-07-07T08:49:39.539Z,20.98
2017-07-07T08:50:39.562Z,20.99
2017-07-07T08:51:39.538Z,20.94
2017-07-07T08:52:39.544Z,21.01
2017-07-07T08:53:39.546Z,20.98
2017-07-07T08:54:39.541Z,20.97
2017-07-07T08:55:39.554Z,20.99
2017-07-07T08:56:39.537Z,20.98
2017-07-07T08:57:39.557Z,21.07
2017-07-07T08:58:39.543Z,21.14
2017-07-07T08:59:39.543Z,21.12
2017-07-07T09:00:39.536Z,21.17
2017-07-07T09:01:39.545Z,21.24
2017-07-07T09:02:39.550Z,21.22
2017-07-07T09:03:39.528Z,21.21
2017-07-07T09:04:39.527Z,21.25
2017-07-07T09:05:39.514Z,21.21
2017-07-07T09:06:39.525Z,21.19
2017-07-07T09:07:39.531Z,21.16
2017-07-07T09:08:39.543Z,21.19
2017-07-07T09:09:39.514Z,21.32
2017-07-07T09:10:39.219Z,21.17
2017-07-07T09:11:39.519Z,21.31
2017-07-07T09:12:39.520Z,21.34
2017-07-07T09:13:39.515Z,21.37
2017-07-07T09:14:39.595Z,21.46
2017-07-07T09:15:39.212Z,21.59
2017-07-07T09:16:39.531Z,21.69
2017-07-07T09:17:39.192Z,21.96
2017-07-07T09:18:39.529Z,22.03
2017-07-07T09:19:39.192Z,22.24
2017-07-07T09:20:38.878Z,22.39
2017-07-07T09:21:39.510Z,22.58
2017-07-07T09:22:38.891Z,22.79
2017-07-07T09:23:39.195Z,23
2017-07-07T09:24:39.526Z,23.16
2017-07-07T09:25:39.502Z,23.33
2017-07-07T09:26:39.528Z,23.48
2017-07-07T09:27:39.514Z,23.53
2017-07-07T09:28:39.204Z,23.72
2017-07-07T09:29:38.882Z,23.8
2017-07-07T09:30:39.530Z,23.8
2017-07-07T09:31:39.512Z,23.85
2017-07-07T09:32:39.524Z,23.85
2017-07-07T09:33:39.536Z,23.93
2017-07-07T09:34:39.524Z,24.02
2017-07-07T09:35:39.203Z,23.95
2017-07-07T09:36:39.521Z,23.95
2017-07-07T09:37:39.511Z,24.1
2017-07-07T09:38:39.216Z,24.1
2017-07-07T09:39:39.528Z,24.27
2017-07-07T09:40:39.539Z,24.46
2017-07-07T09:41:39.209Z,24.65
2017-07-07T09:42:39.538Z,24.83
2017-07-07T09:43:39.223Z,24.98
2017-07-07T09:44:39.544Z,25.36
2017-07-07T09:45:39.221Z,25.52
2017-07-07T09:46:39.575Z,25.87
2017-07-07T09:47:39.526Z,26.09
2017-07-07T09:48:39.224Z,26.4
2017-07-07T09:49:39.560Z,26.82
2017-07-07T09:50:38.918Z,27.03
2017-07-07T09:51:39.548Z,27.32
2017-07-07T09:52:39.233Z,27.49
2017-07-07T09:53:39.242Z,27.63
2017-07-07T09:54:39.569Z,27.75
2017-07-07T09:55:39.563Z,27.72
2017-07-07T09:56:39.575Z,27.72
2017-07-07T09:57:39.576Z,27.87
2017-07-07T09:58:39.595Z,27.97
2017-07-07T09:59:39.263Z,28.04
2017-07-07T10:00:38.954Z,28.17
2017-07-07T10:01:39.588Z,28.39
2017-07-07T10:02:39.607Z,28.43
2017-07-07T10:03:39.288Z,28.62
2017-07-07T10:04:39.620Z,28.68
2017-07-07T10:05:39.619Z,28.77
2017-07-07T10:06:39.299Z,28.83
2017-07-07T10:07:39.316Z,29.09
2017-07-07T10:08:39.633Z,29.31
2017-07-07T10:09:39.630Z,29.6
2017-07-07T10:10:39.018Z,29.68
2017-07-07T10:11:39.641Z,29.92
2017-07-07T10:12:39.669Z,30.04
2017-07-07T10:13:39.651Z,30.27
2017-07-07T10:14:39.683Z,30.46
2017-07-07T10:15:39.356Z,30.64
2017-07-07T10:16:39.679Z,30.73
2017-07-07T10:17:39.688Z,30.88
2017-07-07T10:18:39.699Z,31.02
2017-07-07T10:19:39.380Z,31.1
2017-07-07T10:20:39.722Z,31.19
2017-07-07T10:21:39.715Z,31.31
2017-07-07T10:22:39.708Z,31.31
2017-07-07T10:23:39.738Z,31.35
2017-07-07T10:24:39.425Z,31.32
2017-07-07T10:25:39.748Z,31.36
2017-07-07T10:26:39.738Z,31.48
2017-07-07T10:27:39.769Z,31.44
2017-07-07T10:28:39.131Z,31.43
2017-07-07T10:29:39.778Z,31.38
2017-07-07T10:30:39.780Z,31.39
2017-07-07T10:31:39.487Z,31.35
2017-07-07T10:32:39.802Z,31.28
2017-07-07T10:33:39.810Z,31.26
2017-07-07T10:34:39.499Z,31.25
2017-07-07T10:35:39.513Z,31.17
2017-07-07T10:36:39.817Z,31.21
2017-07-07T10:37:39.828Z,31.2
2017-07-07T10:38:39.826Z,31.14
2017-07-07T10:39:39.855Z,31.17
2017-07-07T10:40:39.862Z,31.17
2017-07-07T10:41:39.550Z,31.16
2017-07-07T10:42:39.859Z,31.1
2017-07-07T10:43:39.942Z,31.02
2017-07-07T10:44:39.872Z,30.92
2017-07-07T10:45:39.589Z,30.77
2017-07-07T10:46:39.893Z,30.65
2017-07-07T10:47:39.913Z,30.53
2017-07-07T10:48:39.608Z,30.35
2017-07-07T10:49:39.851Z,30.07
2017-07-07T10:50:39.919Z,30.01
2017-07-07T10:51:39.941Z,29.79
2017-07-07T10:52:39.955Z,29.7
2017-07-07T10:53:39.965Z,29.52
2017-07-07T10:54:39.968Z,29.33
2017-07-07T10:55:39.657Z,29.15
2017-07-07T10:56:39.664Z,29.11
2017-07-07T10:57:39.986Z,28.92
2017-07-07T10:58:39.677Z,28.9
2017-07-07T10:59:39.992Z,28.76
2017-07-07T11:00:40.003Z,28.62
2017-07-07T11:01:39.690Z,28.61
2017-07-07T11:02:40.006Z,28.43
2017-07-07T11:03:40.031Z,28.41
2017-07-07T11:04:40.026Z,28.39
2017-07-07T11:05:40.033Z,28.18
2017-07-07T11:06:39.704Z,28.17
2017-07-07T11:07:39.725Z,28.06
2017-07-07T11:08:40.054Z,28.04
2017-07-07T11:09:40.060Z,28.03
2017-07-07T11:10:40.061Z,28.02
2017-07-07T11:11:40.052Z,27.97
2017-07-07T11:12:40.066Z,28.06
2017-07-07T11:13:40.082Z,27.99
2017-07-07T11:14:40.079Z,27.87
2017-07-07T11:15:40.083Z,27.84
2017-07-07T11:16:40.086Z,27.74
2017-07-07T11:17:39.788Z,27.75
2017-07-07T11:18:40.079Z,27.74
2017-07-07T11:19:40.111Z,27.77
2017-07-07T11:20:39.778Z,27.63
2017-07-07T11:21:40.112Z,27.6
2017-07-07T11:22:40.111Z,27.6
2017-07-07T11:23:40.114Z,27.49
2017-07-07T11:24:39.492Z,27.44
2017-07-07T11:25:39.817Z,27.47
2017-07-07T11:26:40.119Z,27.47
2017-07-07T11:27:39.508Z,27.37
2017-07-07T11:28:40.144Z,27.29
2017-07-07T11:29:39.833Z,27.34
2017-07-07T11:30:39.829Z,27.36
2017-07-07T11:31:40.156Z,27.32
2017-07-07T11:32:40.136Z,27.39
2017-07-07T11:33:40.171Z,27.41
2017-07-07T11:34:40.155Z,27.34
2017-07-07T11:35:39.867Z,27.28
2017-07-07T11:36:39.862Z,27.37
2017-07-07T11:37:39.870Z,27.28
2017-07-07T11:38:39.865Z,27.25
2017-07-07T11:39:39.873Z,27.27
2017-07-07T11:40:40.570Z,27.31
2017-07-07T11:41:39.891Z,27.22
2017-07-07T11:42:40.207Z,27.18
2017-07-07T11:43:40.184Z,27.14
2017-07-07T11:44:39.889Z,27.14
2017-07-07T11:45:39.887Z,26.99
2017-07-07T11:46:40.229Z,27.02
2017-07-07T11:47:39.888Z,26.95
2017-07-07T11:48:39.915Z,26.84
2017-07-07T11:49:39.894Z,26.85
2017-07-07T11:50:39.921Z,26.7
2017-07-07T11:51:40.226Z,26.65
2017-07-07T11:52:40.226Z,26.6
2017-07-07T11:53:39.932Z,26.58
2017-07-07T11:54:40.235Z,26.52
2017-07-07T11:55:39.924Z,26.6
2017-07-07T11:56:40.243Z,26.45
2017-07-07T11:57:39.950Z,26.54
2017-07-07T11:58:39.959Z,26.55
2017-07-07T11:59:39.933Z,26.55
2017-07-07T12:00:39.940Z,26.6
2017-07-07T12:01:39.945Z,26.51
2017-07-07T12:02:39.967Z,26.65
2017-07-07T12:03:39.956Z,26.72
2017-07-07T12:04:39.973Z,26.84
2017-07-07T12:05:40.644Z,26.8
2017-07-07T12:06:40.299Z,26.82
2017-07-07T12:07:40.299Z,26.84
2017-07-07T12:08:40.299Z,26.94
2017-07-07T12:09:40.300Z,27.03
2017-07-07T12:10:40.319Z,26.99
2017-07-07T12:11:40.304Z,26.99
2017-07-07T12:12:40.003Z,27.03
2017-07-07T12:13:40.315Z,27.03
2017-07-07T12:14:40.298Z,27.03
2017-07-07T12:15:40.326Z,27.02
2017-07-07T12:16:40.321Z,27.1
2017-07-07T12:17:40.308Z,27.1
2017-07-07T12:18:40.028Z,27.13
2017-07-07T12:19:40.022Z,27.13
2017-07-07T12:20:40.032Z,27.18
2017-07-07T12:21:40.337Z,27.1
2017-07-07T12:22:40.348Z,27.09
2017-07-07T12:23:40.035Z,27.21
2017-07-07T12:24:40.351Z,27.18
2017-07-07T12:25:40.342Z,27.22
2017-07-07T12:26:40.376Z,27.29
2017-07-07T12:27:40.363Z,27.29
2017-07-07T12:28:40.051Z,27.27
2017-07-07T12:29:40.364Z,27.27
2017-07-07T12:30:40.361Z,27.28
2017-07-07T12:31:40.063Z,27.31
2017-07-07T12:32:40.060Z,27.31
2017-07-07T12:33:40.404Z,27.37
2017-07-07T12:34:40.074Z,27.41
2017-07-07T12:35:40.394Z,27.49
2017-07-07T12:36:40.384Z,27.44
2017-07-07T12:37:40.414Z,27.49
2017-07-07T12:38:40.401Z,27.59
2017-07-07T12:39:40.434Z,27.63
2017-07-07T12:40:40.422Z,27.72
2017-07-07T12:41:40.432Z,27.78
2017-07-07T12:42:40.417Z,27.77
2017-07-07T12:43:40.435Z,27.72
2017-07-07T12:44:39.794Z,27.7
2017-07-07T12:45:40.102Z,27.77
2017-07-07T12:46:40.441Z,27.77
2017-07-07T12:47:40.442Z,27.72
2017-07-07T12:48:40.458Z,27.78
2017-07-07T12:49:40.460Z,27.87
2017-07-07T12:50:39.812Z,27.84
2017-07-07T12:51:40.143Z,27.84
2017-07-07T12:52:40.462Z,27.82
2017-07-07T12:53:40.216Z,27.87
2017-07-07T12:54:40.144Z,27.82